sensor_id;sensor_type;location;lat;lon;timestamp;P1;durP1;ratioP1;P2;durP2;ratioP2
78296;SDS011;67555;47.660;19.622;2023-11-21T00:00:35;9.48;;;4.32;;
78296;SDS011;67555;47.660;19.622;2023-11-21T00:03:00;9.55;;;4.18;;
78296;SDS011;67555;47.660;19.622;2023-11-21T00:05:27;8.15;;;4.05;;
78296;SDS011;67555;47.660;19.622;2023-11-21T00:07:52;11.50;;;4.72;;
78296;SDS011;67555;47.660;19.622;2023-11-21T00:10:18;8.60;;;5.03;;
78296;SDS011;67555;47.660;19.622;2023-11-21T00:12:44;7.07;;;4.50;;
78296;SDS011;67555;47.660;19.622;2023-11-21T00:17:38;8.57;;;4.28;;
78296;SDS011;67555;47.660;19.622;2023-11-21T00:20:07;8.55;;;4.32;;
78296;SDS011;67555;47.660;19.622;2023-11-21T00:22:33;7.95;;;4.20;;
78296;SDS011;67555;47.660;19.622;2023-11-21T00:25:00;9.65;;;4.03;;
78296;SDS011;67555;47.660;19.622;2023-11-21T00:27:26;6.47;;;3.38;;
78296;SDS011;67555;47.660;19.622;2023-11-21T00:29:52;6.45;;;3.60;;
78296;SDS011;67555;47.660;19.622;2023-11-21T00:32:18;9.60;;;4.07;;
78296;SDS011;67555;47.660;19.622;2023-11-21T00:34:44;9.15;;;3.47;;
78296;SDS011;67555;47.660;19.622;2023-11-21T00:37:11;8.00;;;3.78;;
78296;SDS011;67555;47.660;19.622;2023-11-21T00:39:36;9.38;;;4.18;;
78296;SDS011;67555;47.660;19.622;2023-11-21T00:42:02;12.18;;;5.40;;
78296;SDS011;67555;47.660;19.622;2023-11-21T00:44:30;10.07;;;5.93;;
78296;SDS011;67555;47.660;19.622;2023-11-21T00:46:55;15.82;;;6.22;;
78296;SDS011;67555;47.660;19.622;2023-11-21T00:49:21;19.45;;;6.68;;
78296;SDS011;67555;47.660;19.622;2023-11-21T00:51:47;10.98;;;6.13;;
78296;SDS011;67555;47.660;19.622;2023-11-21T00:54:13;8.75;;;6.07;;
78296;SDS011;67555;47.660;19.622;2023-11-21T00:56:38;11.38;;;5.97;;
78296;SDS011;67555;47.660;19.622;2023-11-21T00:59:05;13.50;;;6.72;;
78296;SDS011;67555;47.660;19.622;2023-11-21T01:01:32;11.13;;;6.05;;
78296;SDS011;67555;47.660;19.622;2023-11-21T01:03:57;9.48;;;5.55;;
78296;SDS011;67555;47.660;19.622;2023-11-21T01:06:23;11.05;;;4.63;;
78296;SDS011;67555;47.660;19.622;2023-11-21T01:08:49;8.90;;;4.25;;
78296;SDS011;67555;47.660;19.622;2023-11-21T01:11:14;12.45;;;4.72;;
78296;SDS011;67555;47.660;19.622;2023-11-21T01:13:40;10.65;;;4.65;;
78296;SDS011;67555;47.660;19.622;2023-11-21T01:16:07;7.47;;;5.15;;
78296;SDS011;67555;47.660;19.622;2023-11-21T01:18:33;7.88;;;4.43;;
78296;SDS011;67555;47.660;19.622;2023-11-21T01:21:00;9.93;;;5.25;;
78296;SDS011;67555;47.660;19.622;2023-11-21T01:23:26;7.45;;;4.70;;
78296;SDS011;67555;47.660;19.622;2023-11-21T01:25:52;7.72;;;4.57;;
78296;SDS011;67555;47.660;19.622;2023-11-21T01:28:20;8.73;;;4.43;;
78296;SDS011;67555;47.660;19.622;2023-11-21T01:30:45;8.00;;;4.25;;
78296;SDS011;67555;47.660;19.622;2023-11-21T01:33:11;7.20;;;4.90;;
78296;SDS011;67555;47.660;19.622;2023-11-21T01:35:37;7.53;;;3.75;;
78296;SDS011;67555;47.660;19.622;2023-11-21T01:38:03;7.80;;;4.63;;
78296;SDS011;67555;47.660;19.622;2023-11-21T01:40:29;8.68;;;4.53;;
78296;SDS011;67555;47.660;19.622;2023-11-21T01:42:55;10.23;;;4.20;;
78296;SDS011;67555;47.660;19.622;2023-11-21T01:45:22;8.68;;;4.47;;
78296;SDS011;67555;47.660;19.622;2023-11-21T01:47:50;6.45;;;4.05;;
78296;SDS011;67555;47.660;19.622;2023-11-21T01:50:16;7.93;;;4.07;;
78296;SDS011;67555;47.660;19.622;2023-11-21T01:52:47;9.90;;;3.90;;
78296;SDS011;67555;47.660;19.622;2023-11-21T01:55:14;7.45;;;4.53;;
78296;SDS011;67555;47.660;19.622;2023-11-21T01:57:45;9.90;;;4.78;;
78296;SDS011;67555;47.660;19.622;2023-11-21T02:00:11;9.40;;;4.70;;
78296;SDS011;67555;47.660;19.622;2023-11-21T02:02:44;9.57;;;4.03;;
78296;SDS011;67555;47.660;19.622;2023-11-21T02:05:11;7.03;;;3.38;;
78296;SDS011;67555;47.660;19.622;2023-11-21T02:07:38;11.32;;;4.53;;
78296;SDS011;67555;47.660;19.622;2023-11-21T02:10:24;8.20;;;3.97;;
78296;SDS011;67555;47.660;19.622;2023-11-21T02:12:50;6.43;;;3.63;;
78296;SDS011;67555;47.660;19.622;2023-11-21T02:15:16;13.60;;;4.82;;
78296;SDS011;67555;47.660;19.622;2023-11-21T02:17:46;7.35;;;4.00;;
78296;SDS011;67555;47.660;19.622;2023-11-21T02:20:12;6.20;;;3.90;;
78296;SDS011;67555;47.660;19.622;2023-11-21T02:22:42;8.77;;;4.13;;
78296;SDS011;67555;47.660;19.622;2023-11-21T02:25:25;11.00;;;3.85;;
78296;SDS011;67555;47.660;19.622;2023-11-21T02:27:53;7.88;;;3.78;;
78296;SDS011;67555;47.660;19.622;2023-11-21T02:30:20;9.10;;;4.70;;
78296;SDS011;67555;47.660;19.622;2023-11-21T02:32:47;8.68;;;4.07;;
78296;SDS011;67555;47.660;19.622;2023-11-21T02:35:13;6.72;;;4.07;;
78296;SDS011;67555;47.660;19.622;2023-11-21T02:37:40;8.55;;;3.92;;
78296;SDS011;67555;47.660;19.622;2023-11-21T02:40:08;6.82;;;4.10;;
78296;SDS011;67555;47.660;19.622;2023-11-21T02:42:35;14.32;;;4.93;;
78296;SDS011;67555;47.660;19.622;2023-11-21T02:45:01;9.15;;;4.15;;
78296;SDS011;67555;47.660;19.622;2023-11-21T02:47:26;14.35;;;4.18;;
78296;SDS011;67555;47.660;19.622;2023-11-21T02:49:52;7.03;;;4.05;;
78296;SDS011;67555;47.660;19.622;2023-11-21T02:52:18;8.43;;;4.55;;
78296;SDS011;67555;47.660;19.622;2023-11-21T02:54:44;11.13;;;4.32;;
78296;SDS011;67555;47.660;19.622;2023-11-21T02:57:10;9.20;;;4.70;;
78296;SDS011;67555;47.660;19.622;2023-11-21T02:59:36;8.10;;;4.25;;
78296;SDS011;67555;47.660;19.622;2023-11-21T03:02:01;7.07;;;4.43;;
78296;SDS011;67555;47.660;19.622;2023-11-21T03:04:27;6.45;;;4.05;;
78296;SDS011;67555;47.660;19.622;2023-11-21T03:06:52;7.10;;;4.28;;
78296;SDS011;67555;47.660;19.622;2023-11-21T03:09:18;28.33;;;5.28;;
78296;SDS011;67555;47.660;19.622;2023-11-21T03:11:45;7.07;;;3.80;;
78296;SDS011;67555;47.660;19.622;2023-11-21T03:14:10;9.23;;;3.92;;
78296;SDS011;67555;47.660;19.622;2023-11-21T03:16:36;4.43;;;3.75;;
78296;SDS011;67555;47.660;19.622;2023-11-21T03:19:03;11.23;;;4.10;;
78296;SDS011;67555;47.660;19.622;2023-11-21T03:21:30;7.57;;;3.90;;
78296;SDS011;67555;47.660;19.622;2023-11-21T03:23:55;9.43;;;3.70;;
78296;SDS011;67555;47.660;19.622;2023-11-21T03:26:21;8.68;;;3.65;;
78296;SDS011;67555;47.660;19.622;2023-11-21T03:28:47;5.18;;;4.00;;
78296;SDS011;67555;47.660;19.622;2023-11-21T03:31:13;7.35;;;3.67;;
78296;SDS011;67555;47.660;19.622;2023-11-21T03:33:38;6.05;;;3.30;;
78296;SDS011;67555;47.660;19.622;2023-11-21T03:36:04;11.73;;;3.88;;
78296;SDS011;67555;47.660;19.622;2023-11-21T03:38:30;5.28;;;3.22;;
78296;SDS011;67555;47.660;19.622;2023-11-21T03:40:56;5.55;;;3.47;;
78296;SDS011;67555;47.660;19.622;2023-11-21T03:43:21;5.78;;;3.45;;
78296;SDS011;67555;47.660;19.622;2023-11-21T03:45:47;14.25;;;3.28;;
78296;SDS011;67555;47.660;19.622;2023-11-21T03:48:13;8.05;;;3.47;;
78296;SDS011;67555;47.660;19.622;2023-11-21T03:50:39;5.72;;;3.25;;
78296;SDS011;67555;47.660;19.622;2023-11-21T03:53:05;7.95;;;3.53;;
78296;SDS011;67555;47.660;19.622;2023-11-21T03:55:30;5.80;;;3.47;;
78296;SDS011;67555;47.660;19.622;2023-11-21T03:57:58;12.60;;;3.85;;
78296;SDS011;67555;47.660;19.622;2023-11-21T04:00:24;3.63;;;2.83;;
78296;SDS011;67555;47.660;19.622;2023-11-21T04:02:52;8.15;;;4.18;;
78296;SDS011;67555;47.660;19.622;2023-11-21T04:05:17;8.18;;;4.28;;
78296;SDS011;67555;47.660;19.622;2023-11-21T04:07:45;9.77;;;3.83;;
78296;SDS011;67555;47.660;19.622;2023-11-21T04:10:10;10.45;;;4.70;;
78296;SDS011;67555;47.660;19.622;2023-11-21T04:12:38;16.83;;;5.35;;
78296;SDS011;67555;47.660;19.622;2023-11-21T04:15:03;7.45;;;4.05;;
78296;SDS011;67555;47.660;19.622;2023-11-21T04:17:30;7.60;;;3.10;;
78296;SDS011;67555;47.660;19.622;2023-11-21T04:19:56;6.32;;;3.67;;
78296;SDS011;67555;47.660;19.622;2023-11-21T04:22:21;7.72;;;3.75;;
78296;SDS011;67555;47.660;19.622;2023-11-21T04:24:47;15.52;;;5.50;;
78296;SDS011;67555;47.660;19.622;2023-11-21T04:27:14;7.90;;;3.97;;
78296;SDS011;67555;47.660;19.622;2023-11-21T04:29:40;8.90;;;3.58;;
78296;SDS011;67555;47.660;19.622;2023-11-21T04:32:06;9.57;;;4.10;;
78296;SDS011;67555;47.660;19.622;2023-11-21T04:34:32;8.63;;;4.05;;
78296;SDS011;67555;47.660;19.622;2023-11-21T04:36:59;5.97;;;3.55;;
78296;SDS011;67555;47.660;19.622;2023-11-21T04:39:25;5.63;;;3.60;;
78296;SDS011;67555;47.660;19.622;2023-11-21T04:41:51;7.72;;;3.90;;
78296;SDS011;67555;47.660;19.622;2023-11-21T04:44:18;12.65;;;5.07;;
78296;SDS011;67555;47.660;19.622;2023-11-21T04:46:45;13.48;;;5.35;;
78296;SDS011;67555;47.660;19.622;2023-11-21T04:49:11;10.32;;;4.97;;
78296;SDS011;67555;47.660;19.622;2023-11-21T04:51:37;8.77;;;3.95;;
78296;SDS011;67555;47.660;19.622;2023-11-21T04:54:02;9.73;;;4.72;;
78296;SDS011;67555;47.660;19.622;2023-11-21T04:56:28;10.63;;;4.50;;
78296;SDS011;67555;47.660;19.622;2023-11-21T04:58:54;9.45;;;4.18;;
78296;SDS011;67555;47.660;19.622;2023-11-21T05:01:20;7.53;;;4.30;;
78296;SDS011;67555;47.660;19.622;2023-11-21T05:03:46;8.55;;;5.07;;
78296;SDS011;67555;47.660;19.622;2023-11-21T05:06:12;11.32;;;4.03;;
78296;SDS011;67555;47.660;19.622;2023-11-21T05:08:39;12.50;;;4.57;;
78296;SDS011;67555;47.660;19.622;2023-11-21T05:11:05;13.50;;;6.60;;
78296;SDS011;67555;47.660;19.622;2023-11-21T05:13:33;15.10;;;6.75;;
78296;SDS011;67555;47.660;19.622;2023-11-21T05:15:59;20.40;;;9.88;;
78296;SDS011;67555;47.660;19.622;2023-11-21T05:18:25;22.15;;;9.32;;
78296;SDS011;67555;47.660;19.622;2023-11-21T05:20:52;17.08;;;8.45;;
78296;SDS011;67555;47.660;19.622;2023-11-21T05:23:18;30.58;;;10.63;;
78296;SDS011;67555;47.660;19.622;2023-11-21T05:25:44;14.85;;;8.27;;
78296;SDS011;67555;47.660;19.622;2023-11-21T05:28:11;13.52;;;7.60;;
78296;SDS011;67555;47.660;19.622;2023-11-21T05:30:37;44.05;;;15.10;;
78296;SDS011;67555;47.660;19.622;2023-11-21T05:35:32;18.40;;;8.55;;
78296;SDS011;67555;47.660;19.622;2023-11-21T05:37:57;19.33;;;9.10;;
78296;SDS011;67555;47.660;19.622;2023-11-21T05:40:23;22.60;;;10.27;;
78296;SDS011;67555;47.660;19.622;2023-11-21T05:42:51;25.67;;;11.18;;
78296;SDS011;67555;47.660;19.622;2023-11-21T05:45:17;13.80;;;7.38;;
78296;SDS011;67555;47.660;19.622;2023-11-21T05:47:44;21.40;;;9.68;;
78296;SDS011;67555;47.660;19.622;2023-11-21T05:50:13;32.42;;;13.77;;
78296;SDS011;67555;47.660;19.622;2023-11-21T05:52:41;29.65;;;12.07;;
78296;SDS011;67555;47.660;19.622;2023-11-21T05:55:11;34.05;;;11.30;;
78296;SDS011;67555;47.660;19.622;2023-11-21T05:57:39;20.98;;;10.68;;
78296;SDS011;67555;47.660;19.622;2023-11-21T06:00:15;27.60;;;9.98;;
78296;SDS011;67555;47.660;19.622;2023-11-21T06:02:45;31.42;;;11.32;;
78296;SDS011;67555;47.660;19.622;2023-11-21T06:05:12;21.77;;;10.25;;
78296;SDS011;67555;47.660;19.622;2023-11-21T06:07:37;22.60;;;9.52;;
78296;SDS011;67555;47.660;19.622;2023-11-21T06:10:05;24.77;;;10.57;;
78296;SDS011;67555;47.660;19.622;2023-11-21T06:12:34;21.15;;;8.27;;
78296;SDS011;67555;47.660;19.622;2023-11-21T06:15:03;28.23;;;9.40;;
78296;SDS011;67555;47.660;19.622;2023-11-21T06:17:33;21.42;;;9.63;;
78296;SDS011;67555;47.660;19.622;2023-11-21T06:20:01;19.67;;;9.18;;
78296;SDS011;67555;47.660;19.622;2023-11-21T06:22:40;15.80;;;8.55;;
78296;SDS011;67555;47.660;19.622;2023-11-21T06:25:07;22.58;;;8.82;;
78296;SDS011;67555;47.660;19.622;2023-11-21T06:27:37;35.70;;;13.48;;
78296;SDS011;67555;47.660;19.622;2023-11-21T06:30:05;109.95;;;34.60;;
78296;SDS011;67555;47.660;19.622;2023-11-21T06:32:31;25.27;;;12.27;;
78296;SDS011;67555;47.660;19.622;2023-11-21T06:34:58;12.00;;;7.65;;
78296;SDS011;67555;47.660;19.622;2023-11-21T06:39:52;12.02;;;4.80;;
78296;SDS011;67555;47.660;19.622;2023-11-21T06:42:19;7.40;;;4.50;;
78296;SDS011;67555;47.660;19.622;2023-11-21T06:44:45;16.38;;;6.10;;
78296;SDS011;67555;47.660;19.622;2023-11-21T06:47:11;10.48;;;5.15;;
78296;SDS011;67555;47.660;19.622;2023-11-21T06:49:37;9.43;;;4.63;;
78296;SDS011;67555;47.660;19.622;2023-11-21T06:52:05;10.40;;;4.20;;
78296;SDS011;67555;47.660;19.622;2023-11-21T06:54:31;8.32;;;3.75;;
78296;SDS011;67555;47.660;19.622;2023-11-21T06:56:57;8.40;;;4.18;;
78296;SDS011;67555;47.660;19.622;2023-11-21T06:59:23;7.25;;;3.47;;
78296;SDS011;67555;47.660;19.622;2023-11-21T07:01:49;5.55;;;3.13;;
78296;SDS011;67555;47.660;19.622;2023-11-21T07:04:15;7.35;;;3.53;;
78296;SDS011;67555;47.660;19.622;2023-11-21T07:06:41;14.45;;;4.55;;
78296;SDS011;67555;47.660;19.622;2023-11-21T07:09:08;6.60;;;3.70;;
78296;SDS011;67555;47.660;19.622;2023-11-21T07:11:34;9.65;;;3.97;;
78296;SDS011;67555;47.660;19.622;2023-11-21T07:14:00;6.63;;;3.97;;
78296;SDS011;67555;47.660;19.622;2023-11-21T07:16:33;8.38;;;4.13;;
78296;SDS011;67555;47.660;19.622;2023-11-21T07:19:05;18.60;;;9.18;;
78296;SDS011;67555;47.660;19.622;2023-11-21T07:21:32;10.77;;;6.68;;
78296;SDS011;67555;47.660;19.622;2023-11-21T07:23:59;12.32;;;5.90;;
78296;SDS011;67555;47.660;19.622;2023-11-21T07:26:26;11.32;;;6.35;;
78296;SDS011;67555;47.660;19.622;2023-11-21T07:28:52;5.35;;;4.47;;
78296;SDS011;67555;47.660;19.622;2023-11-21T07:31:18;9.40;;;5.32;;
78296;SDS011;67555;47.660;19.622;2023-11-21T07:33:46;8.48;;;4.47;;
78296;SDS011;67555;47.660;19.622;2023-11-21T07:36:15;10.63;;;4.30;;
78296;SDS011;67555;47.660;19.622;2023-11-21T07:38:41;35.28;;;10.43;;
78296;SDS011;67555;47.660;19.622;2023-11-21T07:41:08;42.95;;;15.40;;
78296;SDS011;67555;47.660;19.622;2023-11-21T07:43:34;22.55;;;8.73;;
78296;SDS011;67555;47.660;19.622;2023-11-21T07:46:04;10.23;;;5.10;;
78296;SDS011;67555;47.660;19.622;2023-11-21T07:48:30;15.18;;;8.40;;
78296;SDS011;67555;47.660;19.622;2023-11-21T07:50:56;13.02;;;6.63;;
78296;SDS011;67555;47.660;19.622;2023-11-21T07:53:23;12.45;;;7.25;;
78296;SDS011;67555;47.660;19.622;2023-11-21T07:56:06;13.32;;;5.72;;
78296;SDS011;67555;47.660;19.622;2023-11-21T07:58:37;13.95;;;6.22;;
78296;SDS011;67555;47.660;19.622;2023-11-21T08:01:03;12.82;;;4.80;;
78296;SDS011;67555;47.660;19.622;2023-11-21T08:03:30;17.70;;;5.53;;
78296;SDS011;67555;47.660;19.622;2023-11-21T08:05:56;9.23;;;4.90;;
78296;SDS011;67555;47.660;19.622;2023-11-21T08:08:22;17.10;;;5.50;;
78296;SDS011;67555;47.660;19.622;2023-11-21T08:10:48;19.10;;;8.00;;
78296;SDS011;67555;47.660;19.622;2023-11-21T08:13:21;11.98;;;7.05;;
78296;SDS011;67555;47.660;19.622;2023-11-21T08:15:48;11.50;;;6.38;;
78296;SDS011;67555;47.660;19.622;2023-11-21T08:18:14;12.65;;;4.78;;
78296;SDS011;67555;47.660;19.622;2023-11-21T08:20:40;11.27;;;4.55;;
78296;SDS011;67555;47.660;19.622;2023-11-21T08:23:06;9.63;;;4.72;;
78296;SDS011;67555;47.660;19.622;2023-11-21T08:25:31;8.70;;;4.93;;
78296;SDS011;67555;47.660;19.622;2023-11-21T08:27:59;10.38;;;4.28;;
78296;SDS011;67555;47.660;19.622;2023-11-21T08:30:25;7.43;;;4.95;;
78296;SDS011;67555;47.660;19.622;2023-11-21T08:35:23;10.90;;;4.38;;
78296;SDS011;67555;47.660;19.622;2023-11-21T08:37:51;7.25;;;4.35;;
78296;SDS011;67555;47.660;19.622;2023-11-21T08:40:18;8.55;;;5.03;;
78296;SDS011;67555;47.660;19.622;2023-11-21T08:42:45;11.18;;;6.30;;
78296;SDS011;67555;47.660;19.622;2023-11-21T08:45:11;10.27;;;4.68;;
78296;SDS011;67555;47.660;19.622;2023-11-21T08:47:38;5.97;;;3.47;;
78296;SDS011;67555;47.660;19.622;2023-11-21T08:50:05;7.30;;;3.30;;
78296;SDS011;67555;47.660;19.622;2023-11-21T08:52:34;8.95;;;4.18;;
78296;SDS011;67555;47.660;19.622;2023-11-21T08:55:00;5.38;;;3.08;;
78296;SDS011;67555;47.660;19.622;2023-11-21T08:57:32;7.75;;;2.90;;
78296;SDS011;67555;47.660;19.622;2023-11-21T08:59:58;7.45;;;4.30;;
78296;SDS011;67555;47.660;19.622;2023-11-21T09:02:27;6.95;;;3.78;;
78296;SDS011;67555;47.660;19.622;2023-11-21T09:04:53;18.75;;;7.03;;
78296;SDS011;67555;47.660;19.622;2023-11-21T09:07:19;23.85;;;8.45;;
78296;SDS011;67555;47.660;19.622;2023-11-21T09:09:46;29.58;;;11.38;;
78296;SDS011;67555;47.660;19.622;2023-11-21T09:12:14;18.98;;;7.95;;
78296;SDS011;67555;47.660;19.622;2023-11-21T09:14:41;10.15;;;4.90;;
78296;SDS011;67555;47.660;19.622;2023-11-21T09:17:12;11.52;;;5.10;;
78296;SDS011;67555;47.660;19.622;2023-11-21T09:22:03;128.13;;;38.63;;
78296;SDS011;67555;47.660;19.622;2023-11-21T09:24:30;126.43;;;37.97;;
78296;SDS011;67555;47.660;19.622;2023-11-21T09:26:56;126.32;;;31.70;;
78296;SDS011;67555;47.660;19.622;2023-11-21T09:29:22;99.88;;;29.02;;
78296;SDS011;67555;47.660;19.622;2023-11-21T09:31:48;152.07;;;30.80;;
78296;SDS011;67555;47.660;19.622;2023-11-21T09:34:16;32.88;;;11.10;;
78296;SDS011;67555;47.660;19.622;2023-11-21T09:36:44;18.02;;;7.15;;
78296;SDS011;67555;47.660;19.622;2023-11-21T09:39:10;14.55;;;5.22;;
78296;SDS011;67555;47.660;19.622;2023-11-21T09:41:52;29.20;;;10.35;;
78296;SDS011;67555;47.660;19.622;2023-11-21T09:44:30;10.93;;;5.55;;
78296;SDS011;67555;47.660;19.622;2023-11-21T09:47:00;27.77;;;10.38;;
78296;SDS011;67555;47.660;19.622;2023-11-21T09:49:28;22.58;;;9.65;;
78296;SDS011;67555;47.660;19.622;2023-11-21T09:51:57;45.97;;;19.20;;
78296;SDS011;67555;47.660;19.622;2023-11-21T09:54:28;44.58;;;20.10;;
78296;SDS011;67555;47.660;19.622;2023-11-21T09:56:57;14.65;;;8.15;;
78296;SDS011;67555;47.660;19.622;2023-11-21T09:59:24;14.43;;;5.97;;
78296;SDS011;67555;47.660;19.622;2023-11-21T10:01:55;9.90;;;4.63;;
78296;SDS011;67555;47.660;19.622;2023-11-21T10:04:23;8.30;;;5.22;;
78296;SDS011;67555;47.660;19.622;2023-11-21T10:06:49;25.65;;;10.52;;
78296;SDS011;67555;47.660;19.622;2023-11-21T10:09:16;12.18;;;6.60;;
78296;SDS011;67555;47.660;19.622;2023-11-21T10:11:45;9.93;;;5.63;;
78296;SDS011;67555;47.660;19.622;2023-11-21T10:14:11;7.03;;;4.00;;
78296;SDS011;67555;47.660;19.622;2023-11-21T10:16:40;9.35;;;5.18;;
78296;SDS011;67555;47.660;19.622;2023-11-21T10:19:08;6.75;;;3.72;;
78296;SDS011;67555;47.660;19.622;2023-11-21T10:21:35;9.95;;;4.70;;
78296;SDS011;67555;47.660;19.622;2023-11-21T10:24:03;9.48;;;4.90;;
78296;SDS011;67555;47.660;19.622;2023-11-21T10:26:29;8.15;;;4.75;;
78296;SDS011;67555;47.660;19.622;2023-11-21T10:28:57;6.75;;;3.83;;
78296;SDS011;67555;47.660;19.622;2023-11-21T10:31:26;10.57;;;5.65;;
78296;SDS011;67555;47.660;19.622;2023-11-21T10:33:52;11.35;;;6.07;;
78296;SDS011;67555;47.660;19.622;2023-11-21T10:36:27;9.77;;;5.18;;
78296;SDS011;67555;47.660;19.622;2023-11-21T10:38:54;9.90;;;5.03;;
78296;SDS011;67555;47.660;19.622;2023-11-21T10:41:22;11.45;;;6.35;;
78296;SDS011;67555;47.660;19.622;2023-11-21T10:43:48;13.75;;;5.10;;
78296;SDS011;67555;47.660;19.622;2023-11-21T10:46:17;8.48;;;3.60;;
78296;SDS011;67555;47.660;19.622;2023-11-21T10:48:43;6.70;;;3.67;;
78296;SDS011;67555;47.660;19.622;2023-11-21T10:51:09;8.68;;;4.10;;
78296;SDS011;67555;47.660;19.622;2023-11-21T10:53:43;7.20;;;3.55;;
78296;SDS011;67555;47.660;19.622;2023-11-21T10:56:10;8.35;;;4.13;;
78296;SDS011;67555;47.660;19.622;2023-11-21T10:58:45;10.25;;;5.90;;
78296;SDS011;67555;47.660;19.622;2023-11-21T11:01:11;13.43;;;5.20;;
78296;SDS011;67555;47.660;19.622;2023-11-21T11:03:39;6.95;;;3.83;;
78296;SDS011;67555;47.660;19.622;2023-11-21T11:06:06;8.15;;;3.50;;
78296;SDS011;67555;47.660;19.622;2023-11-21T11:08:39;5.35;;;3.33;;
78296;SDS011;67555;47.660;19.622;2023-11-21T11:11:05;5.95;;;2.88;;
78296;SDS011;67555;47.660;19.622;2023-11-21T11:13:32;7.68;;;3.53;;
78296;SDS011;67555;47.660;19.622;2023-11-21T11:15:59;5.53;;;3.55;;
78296;SDS011;67555;47.660;19.622;2023-11-21T11:18:29;7.72;;;3.95;;
78296;SDS011;67555;47.660;19.622;2023-11-21T11:20:59;6.85;;;4.00;;
78296;SDS011;67555;47.660;19.622;2023-11-21T11:34:34;5.13;;;3.03;;
78296;SDS011;67555;47.660;19.622;2023-11-21T11:37:04;8.75;;;4.18;;
78296;SDS011;67555;47.660;19.622;2023-11-21T11:39:35;8.20;;;3.72;;
78296;SDS011;67555;47.660;19.622;2023-11-21T11:42:17;17.23;;;4.28;;
78296;SDS011;67555;47.660;19.622;2023-11-21T11:47:15;10.68;;;4.18;;
78296;SDS011;67555;47.660;19.622;2023-11-21T11:55:20;12.35;;;4.95;;
78296;SDS011;67555;47.660;19.622;2023-11-21T11:57:47;6.13;;;3.53;;
78296;SDS011;67555;47.660;19.622;2023-11-21T12:02:53;7.93;;;3.60;;
78296;SDS011;67555;47.660;19.622;2023-11-21T12:05:22;6.65;;;3.05;;
78296;SDS011;67555;47.660;19.622;2023-11-21T12:07:52;19.65;;;7.65;;
78296;SDS011;67555;47.660;19.622;2023-11-21T12:10:22;12.60;;;6.53;;
78296;SDS011;67555;47.660;19.622;2023-11-21T12:12:54;9.30;;;4.43;;
78296;SDS011;67555;47.660;19.622;2023-11-21T12:15:21;8.43;;;4.38;;
78296;SDS011;67555;47.660;19.622;2023-11-21T12:17:48;9.45;;;5.78;;
78296;SDS011;67555;47.660;19.622;2023-11-21T12:20:15;31.20;;;10.98;;
78296;SDS011;67555;47.660;19.622;2023-11-21T12:22:50;7.93;;;4.18;;
78296;SDS011;67555;47.660;19.622;2023-11-21T12:25:18;15.73;;;4.57;;
78296;SDS011;67555;47.660;19.622;2023-11-21T12:27:49;10.85;;;3.78;;
78296;SDS011;67555;47.660;19.622;2023-11-21T12:30:16;9.35;;;4.80;;
78296;SDS011;67555;47.660;19.622;2023-11-21T12:32:44;9.75;;;4.82;;
78296;SDS011;67555;47.660;19.622;2023-11-21T12:35:13;9.32;;;4.50;;
78296;SDS011;67555;47.660;19.622;2023-11-21T12:37:39;9.18;;;5.40;;
78296;SDS011;67555;47.660;19.622;2023-11-21T12:40:08;5.50;;;3.65;;
78296;SDS011;67555;47.660;19.622;2023-11-21T12:42:39;9.93;;;3.97;;
78296;SDS011;67555;47.660;19.622;2023-11-21T12:45:28;7.93;;;4.45;;
78296;SDS011;67555;47.660;19.622;2023-11-21T12:50:24;6.82;;;3.75;;
78296;SDS011;67555;47.660;19.622;2023-11-21T12:53:06;5.97;;;3.88;;
78296;SDS011;67555;47.660;19.622;2023-11-21T12:55:35;8.43;;;4.20;;
78296;SDS011;67555;47.660;19.622;2023-11-21T12:58:02;9.40;;;4.80;;
78296;SDS011;67555;47.660;19.622;2023-11-21T13:00:37;8.57;;;4.43;;
78296;SDS011;67555;47.660;19.622;2023-11-21T13:03:11;6.50;;;3.92;;
78296;SDS011;67555;47.660;19.622;2023-11-21T13:05:41;6.93;;;3.88;;
78296;SDS011;67555;47.660;19.622;2023-11-21T13:08:09;6.78;;;4.05;;
78296;SDS011;67555;47.660;19.622;2023-11-21T13:10:41;5.95;;;3.95;;
78296;SDS011;67555;47.660;19.622;2023-11-21T13:13:09;7.72;;;4.28;;
78296;SDS011;67555;47.660;19.622;2023-11-21T13:15:47;6.38;;;3.22;;
78296;SDS011;67555;47.660;19.622;2023-11-21T13:18:13;12.32;;;3.58;;
78296;SDS011;67555;47.660;19.622;2023-11-21T13:20:40;6.32;;;2.92;;
78296;SDS011;67555;47.660;19.622;2023-11-21T13:23:08;8.85;;;3.85;;
78296;SDS011;67555;47.660;19.622;2023-11-21T13:25:37;19.38;;;7.18;;
78296;SDS011;67555;47.660;19.622;2023-11-21T13:28:06;19.55;;;8.85;;
78296;SDS011;67555;47.660;19.622;2023-11-21T13:30:32;26.73;;;9.68;;
78296;SDS011;67555;47.660;19.622;2023-11-21T13:35:30;54.80;;;18.70;;
78296;SDS011;67555;47.660;19.622;2023-11-21T13:38:05;9.18;;;4.75;;
78296;SDS011;67555;47.660;19.622;2023-11-21T13:40:33;7.20;;;3.97;;
78296;SDS011;67555;47.660;19.622;2023-11-21T13:43:05;6.18;;;3.53;;
78296;SDS011;67555;47.660;19.622;2023-11-21T13:45:35;5.68;;;3.45;;
78296;SDS011;67555;47.660;19.622;2023-11-21T13:48:11;9.50;;;3.60;;
78296;SDS011;67555;47.660;19.622;2023-11-21T13:50:56;9.07;;;4.07;;
78296;SDS011;67555;47.660;19.622;2023-11-21T13:53:35;9.98;;;4.65;;
78296;SDS011;67555;47.660;19.622;2023-11-21T13:56:03;7.75;;;4.70;;
78296;SDS011;67555;47.660;19.622;2023-11-21T13:58:29;11.60;;;5.13;;
78296;SDS011;67555;47.660;19.622;2023-11-21T14:01:12;8.23;;;4.38;;
78296;SDS011;67555;47.660;19.622;2023-11-21T14:06:33;11.60;;;6.18;;
78296;SDS011;67555;47.660;19.622;2023-11-21T14:09:05;12.00;;;6.55;;
78296;SDS011;67555;47.660;19.622;2023-11-21T14:11:32;14.05;;;6.55;;
78296;SDS011;67555;47.660;19.622;2023-11-21T14:14:03;8.35;;;5.03;;
78296;SDS011;67555;47.660;19.622;2023-11-21T14:16:28;13.98;;;5.88;;
78296;SDS011;67555;47.660;19.622;2023-11-21T14:18:54;12.40;;;6.53;;
78296;SDS011;67555;47.660;19.622;2023-11-21T14:21:34;10.95;;;6.18;;
78296;SDS011;67555;47.660;19.622;2023-11-21T14:24:00;16.60;;;7.15;;
78296;SDS011;67555;47.660;19.622;2023-11-21T14:26:26;18.63;;;6.68;;
78296;SDS011;67555;47.660;19.622;2023-11-21T14:28:53;13.30;;;6.72;;
78296;SDS011;67555;47.660;19.622;2023-11-21T14:31:19;26.85;;;9.65;;
78296;SDS011;67555;47.660;19.622;2023-11-21T14:33:45;18.63;;;8.35;;
78296;SDS011;67555;47.660;19.622;2023-11-21T14:36:11;13.75;;;8.02;;
78296;SDS011;67555;47.660;19.622;2023-11-21T14:38:37;14.27;;;7.22;;
78296;SDS011;67555;47.660;19.622;2023-11-21T14:41:04;18.52;;;8.82;;
78296;SDS011;67555;47.660;19.622;2023-11-21T14:43:33;13.38;;;6.53;;
78296;SDS011;67555;47.660;19.622;2023-11-21T14:46:01;22.33;;;9.38;;
78296;SDS011;67555;47.660;19.622;2023-11-21T14:48:28;21.92;;;11.25;;
78296;SDS011;67555;47.660;19.622;2023-11-21T14:51:13;32.70;;;14.10;;
78296;SDS011;67555;47.660;19.622;2023-11-21T14:53:52;26.38;;;9.43;;
78296;SDS011;67555;47.660;19.622;2023-11-21T14:56:25;13.82;;;7.38;;
78296;SDS011;67555;47.660;19.622;2023-11-21T14:58:56;13.23;;;6.28;;
78296;SDS011;67555;47.660;19.622;2023-11-21T15:01:25;15.75;;;6.75;;
78296;SDS011;67555;47.660;19.622;2023-11-21T15:04:09;12.48;;;6.40;;
78296;SDS011;67555;47.660;19.622;2023-11-21T15:07:05;15.35;;;7.65;;
78296;SDS011;67555;47.660;19.622;2023-11-21T15:09:31;17.42;;;7.57;;
78296;SDS011;67555;47.660;19.622;2023-11-21T15:11:58;12.82;;;7.03;;